createdAt,value
2019-01-11T00:00:02.781Z,73.78
2019-01-11T00:02:33.329Z,73.98
2019-01-11T00:05:03.733Z,72.33
2019-01-11T00:07:34.418Z,73.90
2019-01-11T00:10:06.034Z,73.89
2019-01-11T00:12:36.482Z,74.25
2019-01-11T00:15:07.467Z,73.67
2019-01-11T00:17:38.227Z,73.74
2019-01-11T00:20:08.931Z,75.11
2019-01-11T00:22:39.342Z,74.79
2019-01-11T00:25:10.014Z,74.14
2019-01-11T00:27:40.417Z,75.09
2019-01-11T00:30:11.775Z,74.06
2019-01-11T00:32:42.146Z,74.15
2019-01-11T00:35:12.934Z,75.98
2019-01-11T00:37:43.750Z,75.52
2019-01-11T00:40:14.248Z,75.35
2019-01-11T00:42:44.678Z,76.25
2019-01-11T00:45:15.626Z,75.46
2019-01-11T00:47:46.305Z,73.30
2019-01-11T00:50:17.030Z,74.50
2019-01-11T00:52:47.824Z,74.82
2019-01-11T00:55:18.226Z,74.63
2019-01-11T00:57:48.569Z,75.02
2019-01-11T01:00:21.450Z,74.65
2019-01-11T01:02:52.135Z,75.58
2019-01-11T01:05:22.957Z,74.34
2019-01-11T01:07:53.503Z,73.84
2019-01-11T01:10:23.981Z,73.89
2019-01-11T01:12:54.453Z,74.11
2019-01-11T01:15:24.896Z,74.53
2019-01-11T01:17:55.563Z,74.37
2019-01-11T01:20:26.166Z,74.18
2019-01-11T01:22:57.030Z,73.47
2019-01-11T01:25:27.426Z,73.64
2019-01-11T01:27:57.890Z,73.21
2019-01-11T01:30:28.618Z,72.14
2019-01-11T01:32:58.999Z,72.42
2019-01-11T01:35:29.696Z,74.06
2019-01-11T01:38:00.491Z,75.00
2019-01-11T01:40:31.877Z,74.38
2019-01-11T01:43:02.194Z,72.80
2019-01-11T01:45:32.622Z,72.68
2019-01-11T01:48:03.235Z,72.28
2019-01-11T01:50:33.780Z,72.69
2019-01-11T01:53:04.237Z,72.93
2019-01-11T01:55:34.764Z,72.97
2019-01-11T01:58:05.168Z,74.42
2019-01-11T02:00:35.678Z,74.74
2019-01-11T02:03:06.085Z,73.91
2019-01-11T02:05:36.361Z,74.75
2019-01-11T02:08:06.770Z,73.62
2019-01-11T02:10:37.210Z,73.62
2019-01-11T02:13:08.184Z,74.79
2019-01-11T02:15:38.842Z,76.07
2019-01-11T02:18:09.182Z,74.52
2019-01-11T02:20:39.837Z,75.41
2019-01-11T02:23:10.383Z,75.22
2019-01-11T02:25:46.150Z,76.24
2019-01-11T02:28:13.030Z,76.35
2019-01-11T02:30:43.490Z,77.28
2019-01-11T02:33:13.740Z,78.33
2019-01-11T02:35:44.157Z,79.14
2019-01-11T02:38:14.533Z,79.62
2019-01-11T02:40:44.973Z,77.90
2019-01-11T02:43:15.272Z,76.11
2019-01-11T02:45:45.509Z,76.75
2019-01-11T02:48:15.965Z,76.43
2019-01-11T02:50:46.460Z,76.35
2019-01-11T02:53:17.048Z,76.22
2019-01-11T02:55:48.074Z,79.12
2019-01-11T02:58:18.403Z,76.44
2019-01-11T03:00:48.889Z,75.65
2019-01-11T03:03:19.231Z,76.59
2019-01-11T03:05:49.739Z,77.16
2019-01-11T03:08:20.475Z,76.50
2019-01-11T03:10:51.786Z,76.13
2019-01-11T03:13:22.276Z,77.00
2019-01-11T03:15:52.580Z,76.21
2019-01-11T03:18:23.741Z,76.42
2019-01-11T03:20:54.191Z,76.85
2019-01-11T03:23:24.723Z,77.88
2019-01-11T03:25:55.279Z,78.54
2019-01-11T03:28:26.053Z,77.90
2019-01-11T03:30:58.358Z,78.99
2019-01-11T03:33:28.895Z,77.43
2019-01-11T03:35:59.272Z,77.69
2019-01-11T03:38:29.719Z,77.50
2019-01-11T03:41:00.038Z,78.74
2019-01-11T03:43:30.698Z,79.41
2019-01-11T03:46:01.067Z,77.83
2019-01-11T03:48:31.412Z,80.47
2019-01-11T03:51:01.847Z,79.30
2019-01-11T03:53:32.310Z,79.60
2019-01-11T03:56:02.608Z,79.80
2019-01-11T03:58:33.355Z,77.43
2019-01-11T04:01:03.804Z,77.18
2019-01-11T04:03:34.264Z,77.28
2019-01-11T04:06:04.925Z,77.74
2019-01-11T04:08:36.076Z,77.51
2019-01-11T04:11:06.911Z,78.53
2019-01-11T04:13:37.364Z,76.88
2019-01-11T04:16:07.879Z,77.11
2019-01-11T04:18:57.151Z,77.34
2019-01-11T04:21:27.557Z,77.66
2019-01-11T04:23:58.088Z,77.92
2019-01-11T04:26:28.809Z,78.40
2019-01-11T04:28:59.366Z,78.68
2019-01-11T04:31:29.730Z,78.79
2019-01-11T04:34:00.206Z,79.33
2019-01-11T04:36:30.831Z,80.10
2019-01-11T04:39:01.235Z,79.13
2019-01-11T04:41:31.546Z,80.53
2019-01-11T04:44:01.863Z,79.13
2019-01-11T04:46:32.251Z,80.04
2019-01-11T04:49:02.927Z,79.62
2019-01-11T04:51:33.344Z,80.43
2019-01-11T04:54:03.773Z,80.85
2019-01-11T04:56:34.436Z,81.22
2019-01-11T04:59:04.931Z,82.81
2019-01-11T05:01:35.340Z,82.66
2019-01-11T05:04:05.761Z,81.66
2019-01-11T05:06:36.153Z,81.77
2019-01-11T05:09:08.387Z,82.27
2019-01-11T05:11:38.724Z,82.95
2019-01-11T05:14:09.162Z,83.37
2019-01-11T05:16:39.816Z,82.88
2019-01-11T05:19:10.515Z,83.35
2019-01-11T05:21:41.304Z,84.04
2019-01-11T05:24:11.709Z,84.21
2019-01-11T05:30:21.505Z,84.11
2019-01-11T05:32:51.982Z,84.05
2019-01-11T05:35:22.399Z,84.17
2019-01-11T05:37:52.924Z,84.25
2019-01-11T05:40:23.627Z,84.11
2019-01-11T05:42:54.324Z,84.30
2019-01-11T05:45:24.809Z,84.11
2019-01-11T05:47:55.109Z,84.97
2019-01-11T05:50:25.359Z,84.64
2019-01-11T05:52:55.808Z,84.97
2019-01-11T05:55:45.302Z,85.12
2019-01-11T05:58:44.022Z,85.18
2019-01-11T06:01:15.704Z,84.94
2019-01-11T06:03:46.388Z,85.22
2019-01-11T06:06:16.812Z,85.85
2019-01-11T06:08:47.263Z,85.36
2019-01-11T06:11:18.003Z,84.43
2019-01-11T06:13:48.316Z,83.92
2019-01-11T06:16:18.738Z,83.23
2019-01-11T06:18:49.417Z,82.64
2019-01-11T06:21:19.854Z,83.33
2019-01-11T06:23:50.568Z,83.27
2019-01-11T06:26:21.054Z,82.22
2019-01-11T06:28:51.509Z,81.60
2019-01-11T06:31:21.904Z,81.76
2019-01-11T06:33:52.185Z,82.22
2019-01-11T06:36:22.513Z,81.89
2019-01-11T06:38:52.890Z,81.97
2019-01-11T06:41:25.057Z,82.31
2019-01-11T06:43:55.414Z,82.64
2019-01-11T06:46:26.421Z,82.24
2019-01-11T06:48:57.045Z,81.63
2019-01-11T06:51:27.575Z,81.54
2019-01-11T06:53:58.228Z,80.70
2019-01-11T06:56:28.868Z,81.42
2019-01-11T06:58:59.640Z,81.06
2019-01-11T07:01:30.091Z,80.54
2019-01-11T07:04:00.517Z,81.05
2019-01-11T07:06:30.891Z,81.47
2019-01-11T07:09:01.068Z,81.50
2019-01-11T07:11:31.397Z,80.31
2019-01-11T07:14:01.791Z,79.66
2019-01-11T07:16:32.620Z,80.42
2019-01-11T07:19:03.098Z,80.11
2019-01-11T07:21:33.512Z,80.20
2019-01-11T07:24:04.786Z,79.89
2019-01-11T07:26:35.244Z,79.38
2019-01-11T07:29:05.995Z,79.36
2019-01-11T07:31:36.696Z,80.56
2019-01-11T07:34:07.217Z,79.15
2019-01-11T07:36:40.501Z,79.29
2019-01-11T07:39:22.216Z,79.58
2019-01-11T07:41:52.676Z,79.02
2019-01-11T07:44:23.338Z,78.35
2019-01-11T07:46:53.759Z,77.70
2019-01-11T07:49:24.692Z,77.52
2019-01-11T07:51:55.101Z,77.71
2019-01-11T07:54:25.480Z,78.48
2019-01-11T07:56:55.931Z,77.67
2019-01-11T07:59:26.565Z,77.54
2019-01-11T08:01:57.092Z,78.49
2019-01-11T08:04:27.402Z,77.67
2019-01-11T08:06:57.878Z,78.60
2019-01-11T08:09:28.288Z,77.69
2019-01-11T08:11:58.942Z,76.58
2019-01-11T08:14:29.363Z,76.93
2019-01-11T08:17:00.166Z,78.24
2019-01-11T08:19:30.614Z,79.29
2019-01-11T08:22:01.373Z,77.39
2019-01-11T08:24:31.853Z,78.48
2019-01-11T08:27:02.180Z,78.80
2019-01-11T08:29:32.551Z,77.49
2019-01-11T08:32:02.874Z,78.32
2019-01-11T08:34:33.310Z,78.14
2019-01-11T08:37:04.166Z,77.89
2019-01-11T08:39:34.524Z,77.74
2019-01-11T08:42:04.932Z,77.39
2019-01-11T08:44:36.530Z,77.53
2019-01-11T08:47:06.940Z,77.97
2019-01-11T08:49:37.286Z,77.79
2019-01-11T08:52:07.738Z,78.07
2019-01-11T08:54:38.536Z,77.87
2019-01-11T08:57:09.239Z,76.68
2019-01-11T08:59:39.767Z,77.38
2019-01-11T09:02:10.221Z,76.73
2019-01-11T09:04:40.658Z,77.69
2019-01-11T09:07:11.074Z,77.23
2019-01-11T09:09:41.882Z,78.00
2019-01-11T09:12:12.273Z,76.92
2019-01-11T09:14:48.105Z,76.66
2019-01-11T09:17:20.241Z,78.38
2019-01-11T09:19:50.665Z,78.35
2019-01-11T09:22:21.097Z,79.35
2019-01-11T09:24:51.535Z,79.81
2019-01-11T09:27:22.078Z,79.43
2019-01-11T09:29:52.498Z,79.77
2019-01-11T09:32:23.727Z,79.02
2019-01-11T09:34:54.148Z,80.38
2019-01-11T09:37:25.087Z,80.22
2019-01-11T09:39:55.626Z,80.03
2019-01-11T09:42:26.369Z,81.15
2019-01-11T09:44:56.624Z,81.12
2019-01-11T09:47:27.049Z,80.80
2019-01-11T09:49:57.538Z,80.65
2019-01-11T09:52:57.061Z,80.41
2019-01-11T09:55:27.336Z,80.66
2019-01-11T09:57:57.947Z,80.73
2019-01-11T10:00:28.801Z,81.65
2019-01-11T10:03:04.244Z,81.19
2019-01-11T10:05:34.675Z,80.83
2019-01-11T10:08:04.554Z,80.79
2019-01-11T10:10:34.934Z,80.41
2019-01-11T10:13:05.703Z,82.04
2019-01-11T10:15:36.258Z,82.34
2019-01-11T10:18:06.669Z,82.37
2019-01-11T10:20:36.431Z,81.33
2019-01-11T10:23:08.720Z,81.26
2019-01-11T10:25:39.214Z,81.50
2019-01-11T10:28:10.111Z,82.07
2019-01-11T10:30:40.838Z,81.65
2019-01-11T10:33:11.147Z,82.18
2019-01-11T10:35:41.825Z,83.52
2019-01-11T10:38:12.691Z,84.81
2019-01-11T10:40:43.157Z,83.74
2019-01-11T10:43:13.508Z,84.59
2019-01-11T10:45:43.940Z,85.31
2019-01-11T10:48:14.446Z,85.29
2019-01-11T10:50:44.880Z,84.89
2019-01-11T10:53:15.297Z,85.03
2019-01-11T10:55:45.565Z,86.44
2019-01-11T10:58:16.461Z,85.18
2019-01-11T11:00:46.873Z,85.29
2019-01-11T11:03:17.565Z,86.09
2019-01-11T11:05:47.799Z,86.09
2019-01-11T11:08:18.261Z,86.56
2019-01-11T11:10:49.015Z,86.61
2019-01-11T11:13:19.347Z,85.96
2019-01-11T11:15:49.711Z,85.93
2019-01-11T11:18:20.147Z,87.01
2019-01-11T11:20:51.319Z,86.85
2019-01-11T11:23:21.807Z,85.99
2019-01-11T11:25:52.248Z,86.32
2019-01-11T11:28:22.663Z,86.27
2019-01-11T11:30:53.204Z,86.84
2019-01-11T11:33:23.708Z,87.37
2019-01-11T11:35:53.595Z,86.81
2019-01-11T11:38:24.139Z,87.36
2019-01-11T11:40:55.069Z,88.13
2019-01-11T11:43:25.380Z,88.17
2019-01-11T11:45:55.854Z,87.99
2019-01-11T11:48:26.368Z,88.62
2019-01-11T11:50:56.866Z,88.11
2019-01-11T11:53:28.569Z,88.13
2019-01-11T11:55:59.259Z,88.95
2019-01-11T11:58:29.508Z,88.44
2019-01-11T12:00:59.901Z,88.25
2019-01-11T12:03:30.667Z,88.39
2019-01-11T12:06:01.008Z,88.55
2019-01-11T12:08:31.403Z,88.56
2019-01-11T12:11:02.076Z,89.04
2019-01-11T12:13:34.667Z,88.92
2019-01-11T12:16:04.721Z,88.63
2019-01-11T12:18:35.030Z,89.31
2019-01-11T12:21:05.482Z,89.78
2019-01-11T12:23:35.901Z,89.33
2019-01-11T12:26:06.597Z,89.36
2019-01-11T12:28:37.352Z,88.88
2019-01-11T12:31:07.707Z,88.36
2019-01-11T12:33:37.965Z,88.79
2019-01-11T12:36:09.343Z,88.21
2019-01-11T12:38:39.702Z,88.56
2019-01-11T12:41:10.532Z,88.34
2019-01-11T12:43:41.434Z,88.83
2019-01-11T12:46:11.712Z,89.25
2019-01-11T12:48:41.942Z,89.30
2019-01-11T12:51:12.281Z,88.21
2019-01-11T12:53:42.754Z,88.99
2019-01-11T12:56:13.089Z,88.49
2019-01-11T12:58:43.753Z,88.71
2019-01-11T13:01:14.134Z,88.49
2019-01-11T13:03:44.465Z,88.34
2019-01-11T13:06:15.300Z,88.19
2019-01-11T13:08:45.631Z,88.46
2019-01-11T13:11:16.397Z,88.57
2019-01-11T13:13:47.011Z,88.56
2019-01-11T13:16:17.288Z,88.35
2019-01-11T13:18:47.812Z,88.19
2019-01-11T13:21:18.459Z,88.03
2019-01-11T13:23:48.887Z,87.63
2019-01-11T13:26:19.538Z,88.06
2019-01-11T13:28:50.137Z,87.53
2019-01-11T13:31:20.558Z,87.45
2019-01-11T13:33:50.945Z,86.65
2019-01-11T13:36:23.061Z,86.47
2019-01-11T13:38:53.443Z,87.02
2019-01-11T13:41:23.813Z,86.76
2019-01-11T13:43:54.358Z,86.76
2019-01-11T13:46:24.766Z,87.04
2019-01-11T13:48:55.206Z,87.22
2019-01-11T13:51:25.966Z,87.37
2019-01-11T13:53:56.352Z,87.10
2019-01-11T13:56:26.685Z,87.62
2019-01-11T13:58:56.470Z,87.40
2019-01-11T14:01:26.908Z,87.60
2019-01-11T14:03:57.477Z,87.84
2019-01-11T14:06:27.958Z,87.56
2019-01-11T14:08:58.596Z,87.17
2019-01-11T14:11:29.290Z,87.93
2019-01-11T14:13:59.988Z,87.98
2019-01-11T14:16:30.428Z,87.72
2019-01-11T14:19:00.874Z,87.53
2019-01-11T14:21:31.147Z,87.62
2019-01-11T14:24:01.443Z,87.52
2019-01-11T14:26:32.020Z,87.23
2019-01-11T14:29:02.394Z,87.52
2019-01-11T14:31:32.764Z,88.19
2019-01-11T14:34:03.291Z,88.36
2019-01-11T14:36:34.124Z,88.38
2019-01-11T14:39:06.818Z,88.60
2019-01-11T14:41:37.815Z,89.15
2019-01-11T14:44:08.270Z,89.49
2019-01-11T14:46:38.776Z,89.43
2019-01-11T14:49:09.166Z,90.44
2019-01-11T14:51:39.540Z,90.69
2019-01-11T14:54:10.299Z,90.77
2019-01-11T14:56:41.048Z,91.05
2019-01-11T14:59:11.509Z,91.31
2019-01-11T15:01:41.883Z,91.32
2019-01-11T15:04:12.194Z,91.64
2019-01-11T15:06:42.980Z,91.73
2019-01-11T15:09:13.395Z,91.66
2019-01-11T15:11:43.750Z,92.24
2019-01-11T15:14:14.222Z,91.70
2019-01-11T15:16:44.683Z,92.12
2019-01-11T15:19:15.768Z,91.95
2019-01-11T15:21:46.229Z,91.64
2019-01-11T15:24:16.486Z,91.46
2019-01-11T15:26:46.927Z,91.46
2019-01-11T15:29:17.047Z,91.42
2019-01-11T15:31:47.357Z,91.55
2019-01-11T15:34:17.730Z,91.63
2019-01-11T15:36:47.961Z,91.54
2019-01-11T15:39:18.292Z,91.37
2019-01-11T15:41:48.738Z,91.80
2019-01-11T15:44:19.324Z,91.76
2019-01-11T15:46:49.981Z,91.00
2019-01-11T15:49:20.645Z,91.44
2019-01-11T15:51:51.413Z,91.52
2019-01-11T15:54:21.817Z,91.29
2019-01-11T15:56:52.191Z,91.42
2019-01-11T15:59:22.508Z,91.28
2019-01-11T16:01:56.222Z,91.66
2019-01-11T16:04:26.553Z,91.50
2019-01-11T16:06:57.105Z,91.48
2019-01-11T16:10:04.248Z,91.75
2019-01-11T16:13:05.141Z,91.88
2019-01-11T16:16:22.482Z,92.02
2019-01-11T16:18:55.382Z,92.18
2019-01-11T16:21:25.701Z,92.19
2019-01-11T16:23:56.069Z,92.34
2019-01-11T16:26:26.347Z,92.27
2019-01-11T16:28:56.700Z,92.52
2019-01-11T16:31:27.200Z,92.12
2019-01-11T16:33:57.521Z,92.39
2019-01-11T16:36:28.157Z,92.50
2019-01-11T16:38:59.294Z,92.51
2019-01-11T16:41:29.573Z,92.56
2019-01-11T16:43:59.885Z,92.74
2019-01-11T16:46:29.720Z,92.73
2019-01-11T16:49:00.237Z,92.79
2019-01-11T16:51:30.569Z,92.83
2019-01-11T16:54:01.305Z,92.64
2019-01-11T16:56:31.750Z,92.61
2019-01-11T16:59:02.118Z,92.83
2019-01-11T17:01:32.838Z,92.74
2019-01-11T17:04:03.254Z,92.85
2019-01-11T17:06:33.623Z,92.76
2019-01-11T17:09:05.364Z,92.43
2019-01-11T17:11:35.778Z,93.99
2019-01-11T17:14:06.747Z,95.03
2019-01-11T17:16:37.167Z,95.01
2019-01-11T17:19:07.891Z,95.08
2019-01-11T17:21:38.112Z,94.95
2019-01-11T17:24:08.768Z,94.97
2019-01-11T17:26:38.634Z,94.93
2019-01-11T17:29:09.477Z,94.71
2019-01-11T17:31:40.212Z,94.07
2019-01-11T17:34:10.695Z,92.82
2019-01-11T17:36:40.936Z,93.23
2019-01-11T17:39:11.585Z,93.00
2019-01-11T17:41:41.962Z,92.84
2019-01-11T17:44:12.234Z,92.83
2019-01-11T17:46:43.021Z,93.00
2019-01-11T17:49:13.434Z,92.77
2019-01-11T17:51:43.892Z,92.55
2019-01-11T17:54:13.954Z,92.90
2019-01-11T17:56:44.269Z,92.78
2019-01-11T17:59:14.559Z,93.36
2019-01-11T18:01:44.366Z,92.96
2019-01-11T18:04:14.298Z,92.81
2019-01-11T18:06:44.101Z,92.84
2019-01-11T18:09:14.465Z,92.68
2019-01-11T18:11:44.168Z,92.80
2019-01-11T18:14:14.568Z,92.72
2019-01-11T18:16:44.887Z,92.39
2019-01-11T18:19:15.202Z,92.19
2019-01-11T18:21:45.589Z,92.21
2019-01-11T18:24:15.874Z,92.54
2019-01-11T18:26:46.556Z,92.49
2019-01-11T18:29:16.473Z,92.58
2019-01-11T18:31:46.308Z,92.31
2019-01-11T18:34:17.476Z,92.67
2019-01-11T18:36:48.216Z,92.25
2019-01-11T18:39:18.595Z,92.52
2019-01-11T18:41:48.568Z,92.43
2019-01-11T18:44:18.426Z,92.41
2019-01-11T18:46:48.279Z,92.45
2019-01-11T18:49:18.214Z,92.68
2019-01-11T18:51:48.640Z,92.50
2019-01-11T18:54:19.021Z,92.64
2019-01-11T18:56:49.023Z,93.10
2019-01-11T18:59:19.424Z,93.33
2019-01-11T19:01:49.836Z,92.94
2019-01-11T19:04:20.228Z,93.08
2019-01-11T19:06:50.699Z,93.13
2019-01-11T19:09:21.137Z,93.25
2019-01-11T19:11:51.793Z,93.37
2019-01-11T19:14:21.616Z,93.31
2019-01-11T19:16:51.582Z,93.33
2019-01-11T19:19:22.116Z,93.41
2019-01-11T19:21:52.612Z,93.45
2019-01-11T19:24:22.962Z,93.37
2019-01-11T19:26:53.262Z,93.33
2019-01-11T19:29:24.084Z,93.30
2019-01-11T19:31:54.457Z,93.38
2019-01-11T19:34:24.882Z,93.78
2019-01-11T19:36:55.204Z,93.92
2019-01-11T19:39:26.260Z,93.55
2019-01-11T19:41:56.724Z,93.79
2019-01-11T19:44:27.013Z,93.74
2019-01-11T19:46:57.370Z,93.79
2019-01-11T19:49:27.691Z,93.66
2019-01-11T19:51:58.030Z,93.58
2019-01-11T19:54:27.779Z,93.73
2019-01-11T19:56:58.105Z,93.60
2019-01-11T19:59:28.469Z,93.78
2019-01-11T20:01:58.963Z,94.11
2019-01-11T20:04:29.243Z,93.99
2019-01-11T20:06:59.589Z,94.02
2019-01-11T20:09:29.957Z,93.96
2019-01-11T20:12:00.960Z,94.09
2019-01-11T20:14:31.461Z,94.13
2019-01-11T20:17:01.995Z,94.23
2019-01-11T20:19:32.388Z,94.22
2019-01-11T20:22:02.074Z,94.33
2019-01-11T20:24:34.166Z,94.32
2019-01-11T20:27:04.805Z,94.35
2019-01-11T20:29:35.714Z,94.10
2019-01-11T20:32:06.407Z,94.02
2019-01-11T20:34:36.722Z,93.61
2019-01-11T20:37:16.019Z,93.82
2019-01-11T20:39:46.374Z,93.89
2019-01-11T20:42:16.712Z,93.88
2019-01-11T20:44:47.039Z,93.59
2019-01-11T20:47:17.795Z,93.60
2019-01-11T20:49:47.549Z,93.63
2019-01-11T20:52:17.918Z,93.74
2019-01-11T20:54:48.790Z,93.80
2019-01-11T20:57:19.318Z,93.67
2019-01-11T20:59:49.996Z,93.86
2019-01-11T21:02:20.731Z,93.75
2019-01-11T21:04:50.884Z,93.42
2019-01-11T21:07:21.324Z,93.67
2019-01-11T21:09:51.622Z,93.77
2019-01-11T21:12:22.022Z,93.71
2019-01-11T21:14:52.362Z,93.53
2019-01-11T21:17:23.363Z,93.51
2019-01-11T21:19:53.786Z,93.60
2019-01-11T21:22:24.461Z,93.59
2019-01-11T21:25:00.077Z,93.71
2019-01-11T21:27:26.535Z,93.71
2019-01-11T21:29:56.862Z,94.10
2019-01-11T21:32:27.258Z,94.25
2019-01-11T21:34:57.651Z,94.28
2019-01-11T21:37:27.932Z,94.33
2019-01-11T21:39:58.249Z,94.30
2019-01-11T21:42:28.915Z,94.48
2019-01-11T21:44:59.263Z,94.50
2019-01-11T21:47:29.394Z,94.59
2019-01-11T21:49:59.822Z,94.75
2019-01-11T21:52:30.351Z,94.75
2019-01-11T21:55:00.741Z,94.78
2019-01-11T21:57:31.188Z,94.83
2019-01-11T22:00:01.764Z,94.79
2019-01-11T22:02:32.251Z,94.70
2019-01-11T22:05:02.499Z,94.82
2019-01-11T22:07:32.804Z,94.80
2019-01-11T22:10:03.566Z,94.80
2019-01-11T22:12:34.137Z,94.67
2019-01-11T22:15:05.141Z,94.77
2019-01-11T22:17:36.378Z,94.57
2019-01-11T22:20:09.653Z,94.43
2019-01-11T22:22:40.044Z,94.41
2019-01-11T22:25:12.310Z,94.15
2019-01-11T22:27:42.744Z,94.15
2019-01-11T22:30:19.532Z,93.93
2019-01-11T22:32:49.952Z,93.87
2019-01-11T22:35:20.476Z,93.59
2019-01-11T22:37:50.905Z,93.66
2019-01-11T22:40:23.652Z,93.39
2019-01-11T22:43:00.135Z,93.56
2019-01-11T22:45:30.750Z,93.66
2019-01-11T22:48:01.040Z,93.45
2019-01-11T22:50:31.574Z,93.48
2019-01-11T22:53:01.950Z,93.50
2019-01-11T22:55:32.385Z,93.34
2019-01-11T22:58:02.662Z,93.30
2019-01-11T23:01:10.633Z,93.25
2019-01-11T23:03:51.606Z,93.29
2019-01-11T23:07:05.010Z,92.95
2019-01-11T23:09:55.122Z,92.97
2019-01-11T23:12:46.431Z,92.85
2019-01-11T23:15:34.895Z,92.60
2019-01-11T23:18:15.455Z,92.88
2019-01-11T23:20:46.933Z,92.71
2019-01-11T23:23:17.357Z,92.77
2019-01-11T23:25:47.174Z,92.84
2019-01-11T23:28:17.607Z,92.98
2019-01-11T23:30:48.032Z,92.98
2019-01-11T23:33:18.395Z,92.91
2019-01-11T23:35:48.738Z,92.69
2019-01-11T23:38:19.159Z,92.94
2019-01-11T23:40:48.933Z,92.83
2019-01-11T23:43:19.273Z,93.32
2019-01-11T23:45:49.757Z,93.74
2019-01-11T23:48:20.107Z,93.65
2019-01-11T23:50:50.359Z,93.84
2019-01-11T23:53:20.760Z,93.83
2019-01-11T23:55:51.103Z,94.02
2019-01-11T23:58:20.859Z,94.01
